sensor_id;sensor_type;location;lat;lon;timestamp;P1;durP1;ratioP1;P2;durP2;ratioP2
43710;SDS011;29309;42.682;23.372;2022-12-24T00:01:58;123.30;;;59.22;;
43710;SDS011;29309;42.682;23.372;2022-12-24T00:04:24;105.68;;;47.45;;
43710;SDS011;29309;42.682;23.372;2022-12-24T00:06:49;83.65;;;40.03;;
43710;SDS011;29309;42.682;23.372;2022-12-24T00:09:15;77.88;;;34.75;;
43710;SDS011;29309;42.682;23.372;2022-12-24T00:11:40;62.80;;;30.52;;
43710;SDS011;29309;42.682;23.372;2022-12-24T00:14:06;75.93;;;33.15;;
43710;SDS011;29309;42.682;23.372;2022-12-24T00:16:31;89.22;;;41.95;;
43710;SDS011;29309;42.682;23.372;2022-12-24T00:18:56;81.70;;;36.90;;
43710;SDS011;29309;42.682;23.372;2022-12-24T00:21:22;78.55;;;37.15;;
43710;SDS011;29309;42.682;23.372;2022-12-24T00:23:47;82.43;;;36.85;;
43710;SDS011;29309;42.682;23.372;2022-12-24T00:26:13;89.78;;;40.47;;
43710;SDS011;29309;42.682;23.372;2022-12-24T00:28:39;75.05;;;35.60;;
43710;SDS011;29309;42.682;23.372;2022-12-24T00:31:12;77.40;;;37.35;;
43710;SDS011;29309;42.682;23.372;2022-12-24T00:33:40;100.63;;;38.67;;
43710;SDS011;29309;42.682;23.372;2022-12-24T00:36:05;87.13;;;40.63;;
43710;SDS011;29309;42.682;23.372;2022-12-24T00:38:31;144.18;;;57.03;;
43710;SDS011;29309;42.682;23.372;2022-12-24T00:40:58;110.30;;;52.33;;
43710;SDS011;29309;42.682;23.372;2022-12-24T00:43:24;136.65;;;62.28;;
43710;SDS011;29309;42.682;23.372;2022-12-24T00:45:50;158.02;;;66.63;;
43710;SDS011;29309;42.682;23.372;2022-12-24T00:48:15;158.57;;;72.18;;
43710;SDS011;29309;42.682;23.372;2022-12-24T00:50:41;189.07;;;79.60;;
43710;SDS011;29309;42.682;23.372;2022-12-24T00:53:06;197.82;;;84.10;;
43710;SDS011;29309;42.682;23.372;2022-12-24T00:55:31;210.80;;;85.75;;
43710;SDS011;29309;42.682;23.372;2022-12-24T00:57:57;221.30;;;91.07;;
43710;SDS011;29309;42.682;23.372;2022-12-24T01:00:22;216.23;;;90.25;;
43710;SDS011;29309;42.682;23.372;2022-12-24T01:02:48;204.40;;;87.70;;
43710;SDS011;29309;42.682;23.372;2022-12-24T01:05:13;218.75;;;94.65;;
43710;SDS011;29309;42.682;23.372;2022-12-24T01:07:41;220.48;;;99.28;;
43710;SDS011;29309;42.682;23.372;2022-12-24T01:10:12;205.18;;;90.70;;
43710;SDS011;29309;42.682;23.372;2022-12-24T01:12:40;211.45;;;88.88;;
43710;SDS011;29309;42.682;23.372;2022-12-24T01:15:06;218.02;;;94.22;;
43710;SDS011;29309;42.682;23.372;2022-12-24T01:17:33;214.25;;;96.45;;
43710;SDS011;29309;42.682;23.372;2022-12-24T01:19:59;211.60;;;93.72;;
43710;SDS011;29309;42.682;23.372;2022-12-24T01:22:25;190.48;;;85.40;;
43710;SDS011;29309;42.682;23.372;2022-12-24T01:24:51;171.02;;;76.20;;
43710;SDS011;29309;42.682;23.372;2022-12-24T01:27:16;211.20;;;89.78;;
43710;SDS011;29309;42.682;23.372;2022-12-24T01:29:42;222.63;;;95.22;;
43710;SDS011;29309;42.682;23.372;2022-12-24T01:32:07;203.95;;;91.20;;
43710;SDS011;29309;42.682;23.372;2022-12-24T01:34:33;204.18;;;92.38;;
43710;SDS011;29309;42.682;23.372;2022-12-24T01:36:58;194.70;;;87.05;;
43710;SDS011;29309;42.682;23.372;2022-12-24T01:39:23;186.25;;;85.35;;
43710;SDS011;29309;42.682;23.372;2022-12-24T01:41:49;181.73;;;84.88;;
43710;SDS011;29309;42.682;23.372;2022-12-24T01:44:34;180.38;;;83.07;;
43710;SDS011;29309;42.682;23.372;2022-12-24T01:47:13;179.02;;;83.40;;
43710;SDS011;29309;42.682;23.372;2022-12-24T01:49:45;175.48;;;79.78;;
43710;SDS011;29309;42.682;23.372;2022-12-24T01:52:22;174.15;;;80.50;;
43710;SDS011;29309;42.682;23.372;2022-12-24T01:54:54;169.20;;;78.72;;
43710;SDS011;29309;42.682;23.372;2022-12-24T01:57:29;155.05;;;72.03;;
43710;SDS011;29309;42.682;23.372;2022-12-24T02:00:03;161.10;;;73.28;;
43710;SDS011;29309;42.682;23.372;2022-12-24T02:02:34;162.23;;;73.15;;
43710;SDS011;29309;42.682;23.372;2022-12-24T02:07:38;138.70;;;65.85;;
43710;SDS011;29309;42.682;23.372;2022-12-24T02:10:07;162.45;;;68.10;;
43710;SDS011;29309;42.682;23.372;2022-12-24T02:12:34;111.35;;;51.35;;
43710;SDS011;29309;42.682;23.372;2022-12-24T02:15:02;136.77;;;55.53;;
43710;SDS011;29309;42.682;23.372;2022-12-24T02:17:43;116.78;;;50.53;;
43710;SDS011;29309;42.682;23.372;2022-12-24T02:26:29;130.60;;;59.42;;
43710;SDS011;29309;42.682;23.372;2022-12-24T02:32:10;128.35;;;55.40;;
43710;SDS011;29309;42.682;23.372;2022-12-24T02:34:44;128.35;;;56.65;;
43710;SDS011;29309;42.682;23.372;2022-12-24T02:37:30;134.77;;;58.60;;
43710;SDS011;29309;42.682;23.372;2022-12-24T02:40:03;133.88;;;57.63;;
43710;SDS011;29309;42.682;23.372;2022-12-24T02:42:39;133.20;;;57.65;;
43710;SDS011;29309;42.682;23.372;2022-12-24T02:45:11;135.25;;;54.85;;
43710;SDS011;29309;42.682;23.372;2022-12-24T02:47:43;115.25;;;52.17;;
43710;SDS011;29309;42.682;23.372;2022-12-24T02:50:11;124.35;;;54.00;;
43710;SDS011;29309;42.682;23.372;2022-12-24T02:52:39;128.93;;;55.42;;
43710;SDS011;29309;42.682;23.372;2022-12-24T02:55:08;126.03;;;54.35;;
43710;SDS011;29309;42.682;23.372;2022-12-24T03:05:57;113.35;;;50.17;;
43710;SDS011;29309;42.682;23.372;2022-12-24T03:11:20;99.95;;;49.78;;
43710;SDS011;29309;42.682;23.372;2022-12-24T03:13:45;118.07;;;55.17;;
43710;SDS011;29309;42.682;23.372;2022-12-24T03:16:14;130.57;;;58.05;;
43710;SDS011;29309;42.682;23.372;2022-12-24T03:18:45;142.63;;;60.47;;
43710;SDS011;29309;42.682;23.372;2022-12-24T03:21:27;133.20;;;60.78;;
43710;SDS011;29309;42.682;23.372;2022-12-24T03:23:55;150.75;;;63.47;;
43710;SDS011;29309;42.682;23.372;2022-12-24T03:26:21;146.05;;;62.67;;
43710;SDS011;29309;42.682;23.372;2022-12-24T03:28:49;167.60;;;70.30;;
43710;SDS011;29309;42.682;23.372;2022-12-24T03:31:15;172.23;;;71.32;;
43710;SDS011;29309;42.682;23.372;2022-12-24T03:33:42;153.77;;;65.32;;
43710;SDS011;29309;42.682;23.372;2022-12-24T03:36:08;146.75;;;59.42;;
43710;SDS011;29309;42.682;23.372;2022-12-24T03:38:34;139.93;;;61.75;;
43710;SDS011;29309;42.682;23.372;2022-12-24T03:40:59;146.68;;;64.03;;
43710;SDS011;29309;42.682;23.372;2022-12-24T03:43:24;137.95;;;62.13;;
43710;SDS011;29309;42.682;23.372;2022-12-24T03:45:50;125.43;;;54.90;;
43710;SDS011;29309;42.682;23.372;2022-12-24T03:48:16;136.77;;;58.40;;
43710;SDS011;29309;42.682;23.372;2022-12-24T03:50:41;130.40;;;58.33;;
43710;SDS011;29309;42.682;23.372;2022-12-24T03:53:06;135.20;;;55.85;;
43710;SDS011;29309;42.682;23.372;2022-12-24T03:55:32;124.50;;;55.35;;
43710;SDS011;29309;42.682;23.372;2022-12-24T03:57:57;147.73;;;60.60;;
43710;SDS011;29309;42.682;23.372;2022-12-24T04:00:23;132.68;;;57.50;;
43710;SDS011;29309;42.682;23.372;2022-12-24T04:02:48;139.27;;;57.97;;
43710;SDS011;29309;42.682;23.372;2022-12-24T04:05:15;122.25;;;53.58;;
43710;SDS011;29309;42.682;23.372;2022-12-24T04:07:42;114.40;;;51.60;;
43710;SDS011;29309;42.682;23.372;2022-12-24T04:10:09;121.18;;;53.67;;
43710;SDS011;29309;42.682;23.372;2022-12-24T04:12:35;138.68;;;57.35;;
43710;SDS011;29309;42.682;23.372;2022-12-24T04:15:01;123.68;;;54.85;;
43710;SDS011;29309;42.682;23.372;2022-12-24T04:17:26;128.75;;;53.80;;
43710;SDS011;29309;42.682;23.372;2022-12-24T04:19:52;120.97;;;52.95;;
43710;SDS011;29309;42.682;23.372;2022-12-24T04:22:17;118.68;;;53.85;;
43710;SDS011;29309;42.682;23.372;2022-12-24T04:24:43;130.10;;;54.20;;
43710;SDS011;29309;42.682;23.372;2022-12-24T04:27:08;119.47;;;55.78;;
43710;SDS011;29309;42.682;23.372;2022-12-24T04:29:34;106.28;;;49.47;;
43710;SDS011;29309;42.682;23.372;2022-12-24T04:31:59;120.57;;;52.10;;
43710;SDS011;29309;42.682;23.372;2022-12-24T04:34:25;125.57;;;55.15;;
43710;SDS011;29309;42.682;23.372;2022-12-24T04:36:51;128.43;;;54.70;;
43710;SDS011;29309;42.682;23.372;2022-12-24T04:39:16;117.78;;;52.00;;
43710;SDS011;29309;42.682;23.372;2022-12-24T04:41:41;112.50;;;51.70;;
43710;SDS011;29309;42.682;23.372;2022-12-24T04:44:07;120.50;;;55.15;;
43710;SDS011;29309;42.682;23.372;2022-12-24T04:46:33;115.20;;;50.88;;
43710;SDS011;29309;42.682;23.372;2022-12-24T04:48:59;122.65;;;54.22;;
43710;SDS011;29309;42.682;23.372;2022-12-24T04:51:25;133.88;;;59.53;;
43710;SDS011;29309;42.682;23.372;2022-12-24T04:53:51;131.75;;;60.17;;
43710;SDS011;29309;42.682;23.372;2022-12-24T04:56:18;125.63;;;58.03;;
43710;SDS011;29309;42.682;23.372;2022-12-24T04:58:49;145.65;;;64.32;;
43710;SDS011;29309;42.682;23.372;2022-12-24T05:01:22;137.50;;;60.05;;
43710;SDS011;29309;42.682;23.372;2022-12-24T05:03:50;131.98;;;60.13;;
43710;SDS011;29309;42.682;23.372;2022-12-24T05:06:17;141.30;;;62.42;;
43710;SDS011;29309;42.682;23.372;2022-12-24T05:08:45;131.25;;;62.30;;
43710;SDS011;29309;42.682;23.372;2022-12-24T05:11:11;145.43;;;62.58;;
43710;SDS011;29309;42.682;23.372;2022-12-24T05:13:41;158.15;;;68.55;;
43710;SDS011;29309;42.682;23.372;2022-12-24T05:16:07;171.35;;;75.05;;
43710;SDS011;29309;42.682;23.372;2022-12-24T05:18:32;175.55;;;75.47;;
43710;SDS011;29309;42.682;23.372;2022-12-24T05:20:58;155.68;;;73.10;;
43710;SDS011;29309;42.682;23.372;2022-12-24T05:23:24;160.25;;;72.70;;
43710;SDS011;29309;42.682;23.372;2022-12-24T05:26:31;198.77;;;88.00;;
43710;SDS011;29309;42.682;23.372;2022-12-24T05:29:05;209.07;;;90.35;;
43710;SDS011;29309;42.682;23.372;2022-12-24T05:31:32;206.13;;;87.93;;
43710;SDS011;29309;42.682;23.372;2022-12-24T05:33:58;202.68;;;87.18;;
43710;SDS011;29309;42.682;23.372;2022-12-24T05:36:24;189.50;;;82.93;;
43710;SDS011;29309;42.682;23.372;2022-12-24T05:38:50;189.52;;;82.40;;
43710;SDS011;29309;42.682;23.372;2022-12-24T05:41:16;181.48;;;82.43;;
43710;SDS011;29309;42.682;23.372;2022-12-24T05:43:41;207.88;;;89.63;;
43710;SDS011;29309;42.682;23.372;2022-12-24T05:46:08;191.27;;;83.38;;
43710;SDS011;29309;42.682;23.372;2022-12-24T05:48:36;194.63;;;84.38;;
43710;SDS011;29309;42.682;23.372;2022-12-24T05:51:08;198.52;;;83.15;;
43710;SDS011;29309;42.682;23.372;2022-12-24T05:53:35;202.98;;;86.63;;
43710;SDS011;29309;42.682;23.372;2022-12-24T05:56:20;188.00;;;78.53;;
43710;SDS011;29309;42.682;23.372;2022-12-24T05:58:47;149.43;;;66.13;;
43710;SDS011;29309;42.682;23.372;2022-12-24T06:01:12;139.05;;;59.60;;
43710;SDS011;29309;42.682;23.372;2022-12-24T06:03:39;129.75;;;55.15;;
43710;SDS011;29309;42.682;23.372;2022-12-24T06:06:05;120.00;;;51.80;;
43710;SDS011;29309;42.682;23.372;2022-12-24T06:08:32;133.02;;;54.65;;
43710;SDS011;29309;42.682;23.372;2022-12-24T06:10:59;144.10;;;60.17;;
43710;SDS011;29309;42.682;23.372;2022-12-24T06:13:26;153.25;;;58.55;;
43710;SDS011;29309;42.682;23.372;2022-12-24T06:15:55;133.60;;;55.53;;
43710;SDS011;29309;42.682;23.372;2022-12-24T06:18:22;135.32;;;52.05;;
43710;SDS011;29309;42.682;23.372;2022-12-24T06:20:54;105.50;;;44.28;;
43710;SDS011;29309;42.682;23.372;2022-12-24T06:23:21;100.55;;;43.40;;
43710;SDS011;29309;42.682;23.372;2022-12-24T06:25:47;92.28;;;41.03;;
43710;SDS011;29309;42.682;23.372;2022-12-24T06:28:13;85.75;;;38.88;;
43710;SDS011;29309;42.682;23.372;2022-12-24T06:30:39;105.05;;;45.88;;
43710;SDS011;29309;42.682;23.372;2022-12-24T06:33:05;121.65;;;50.85;;
43710;SDS011;29309;42.682;23.372;2022-12-24T06:35:31;125.00;;;48.55;;
43710;SDS011;29309;42.682;23.372;2022-12-24T06:37:57;139.60;;;53.38;;
43710;SDS011;29309;42.682;23.372;2022-12-24T06:40:23;121.40;;;51.03;;
43710;SDS011;29309;42.682;23.372;2022-12-24T06:42:50;125.88;;;49.25;;
43710;SDS011;29309;42.682;23.372;2022-12-24T06:45:15;115.10;;;45.97;;
43710;SDS011;29309;42.682;23.372;2022-12-24T06:47:41;111.93;;;46.30;;
43710;SDS011;29309;42.682;23.372;2022-12-24T06:50:06;126.85;;;49.92;;
43710;SDS011;29309;42.682;23.372;2022-12-24T06:52:32;116.38;;;45.03;;
43710;SDS011;29309;42.682;23.372;2022-12-24T06:54:58;101.82;;;44.00;;
43710;SDS011;29309;42.682;23.372;2022-12-24T06:57:23;94.88;;;42.60;;
43710;SDS011;29309;42.682;23.372;2022-12-24T06:59:48;103.22;;;41.38;;
43710;SDS011;29309;42.682;23.372;2022-12-24T07:02:14;100.63;;;42.63;;
43710;SDS011;29309;42.682;23.372;2022-12-24T07:04:39;102.18;;;42.92;;
43710;SDS011;29309;42.682;23.372;2022-12-24T07:07:05;87.10;;;39.28;;
43710;SDS011;29309;42.682;23.372;2022-12-24T07:09:30;89.18;;;38.72;;
43710;SDS011;29309;42.682;23.372;2022-12-24T07:11:55;73.20;;;35.05;;
43710;SDS011;29309;42.682;23.372;2022-12-24T07:14:21;84.28;;;35.67;;
43710;SDS011;29309;42.682;23.372;2022-12-24T07:16:46;78.10;;;34.47;;
43710;SDS011;29309;42.682;23.372;2022-12-24T07:19:12;65.00;;;31.33;;
43710;SDS011;29309;42.682;23.372;2022-12-24T07:21:39;68.47;;;32.20;;
43710;SDS011;29309;42.682;23.372;2022-12-24T07:24:04;72.03;;;33.30;;
43710;SDS011;29309;42.682;23.372;2022-12-24T07:26:30;69.60;;;33.88;;
43710;SDS011;29309;42.682;23.372;2022-12-24T07:28:55;63.40;;;31.08;;
43710;SDS011;29309;42.682;23.372;2022-12-24T07:31:21;66.82;;;32.28;;
43710;SDS011;29309;42.682;23.372;2022-12-24T07:33:46;60.10;;;32.00;;
43710;SDS011;29309;42.682;23.372;2022-12-24T07:36:19;63.58;;;28.63;;
43710;SDS011;29309;42.682;23.372;2022-12-24T07:38:45;59.47;;;26.55;;
43710;SDS011;29309;42.682;23.372;2022-12-24T07:41:11;53.70;;;28.02;;
43710;SDS011;29309;42.682;23.372;2022-12-24T07:43:37;53.03;;;27.08;;
43710;SDS011;29309;42.682;23.372;2022-12-24T07:46:03;54.47;;;27.63;;
43710;SDS011;29309;42.682;23.372;2022-12-24T07:48:28;57.55;;;28.20;;
43710;SDS011;29309;42.682;23.372;2022-12-24T07:50:55;60.53;;;29.80;;
43710;SDS011;29309;42.682;23.372;2022-12-24T07:53:22;65.00;;;31.23;;
43710;SDS011;29309;42.682;23.372;2022-12-24T07:55:48;59.13;;;31.40;;
43710;SDS011;29309;42.682;23.372;2022-12-24T07:58:14;63.35;;;28.35;;
43710;SDS011;29309;42.682;23.372;2022-12-24T08:00:40;57.08;;;29.05;;
43710;SDS011;29309;42.682;23.372;2022-12-24T08:03:06;49.22;;;27.25;;
43710;SDS011;29309;42.682;23.372;2022-12-24T08:05:35;54.40;;;27.35;;
43710;SDS011;29309;42.682;23.372;2022-12-24T08:08:00;54.92;;;27.48;;
43710;SDS011;29309;42.682;23.372;2022-12-24T08:10:26;53.25;;;28.13;;
43710;SDS011;29309;42.682;23.372;2022-12-24T08:12:52;53.00;;;28.27;;
43710;SDS011;29309;42.682;23.372;2022-12-24T08:15:17;53.53;;;28.63;;
43710;SDS011;29309;42.682;23.372;2022-12-24T08:17:43;58.88;;;29.42;;
43710;SDS011;29309;42.682;23.372;2022-12-24T08:20:09;55.70;;;28.30;;
43710;SDS011;29309;42.682;23.372;2022-12-24T08:22:35;61.78;;;32.78;;
43710;SDS011;29309;42.682;23.372;2022-12-24T08:25:00;68.32;;;36.15;;
43710;SDS011;29309;42.682;23.372;2022-12-24T08:27:26;76.18;;;38.80;;
43710;SDS011;29309;42.682;23.372;2022-12-24T08:29:51;82.78;;;42.15;;
43710;SDS011;29309;42.682;23.372;2022-12-24T08:32:17;97.13;;;47.90;;
43710;SDS011;29309;42.682;23.372;2022-12-24T08:34:42;92.72;;;49.13;;
43710;SDS011;29309;42.682;23.372;2022-12-24T08:37:07;99.25;;;50.75;;
43710;SDS011;29309;42.682;23.372;2022-12-24T08:39:33;96.93;;;49.38;;
43710;SDS011;29309;42.682;23.372;2022-12-24T08:41:58;84.00;;;44.80;;
43710;SDS011;29309;42.682;23.372;2022-12-24T08:44:24;89.65;;;44.05;;
43710;SDS011;29309;42.682;23.372;2022-12-24T08:46:49;80.50;;;39.67;;
43710;SDS011;29309;42.682;23.372;2022-12-24T08:49:15;78.22;;;38.00;;
43710;SDS011;29309;42.682;23.372;2022-12-24T08:51:40;66.03;;;32.63;;
43710;SDS011;29309;42.682;23.372;2022-12-24T08:54:05;62.78;;;30.40;;
43710;SDS011;29309;42.682;23.372;2022-12-24T08:56:31;56.35;;;29.98;;
43710;SDS011;29309;42.682;23.372;2022-12-24T08:58:58;55.95;;;28.80;;
43710;SDS011;29309;42.682;23.372;2022-12-24T09:01:24;64.13;;;30.95;;
43710;SDS011;29309;42.682;23.372;2022-12-24T09:03:50;62.38;;;30.75;;
43710;SDS011;29309;42.682;23.372;2022-12-24T09:06:16;52.42;;;27.67;;
43710;SDS011;29309;42.682;23.372;2022-12-24T09:08:42;60.55;;;29.17;;
43710;SDS011;29309;42.682;23.372;2022-12-24T09:11:12;67.20;;;31.38;;
43710;SDS011;29309;42.682;23.372;2022-12-24T09:13:39;62.42;;;29.73;;
43710;SDS011;29309;42.682;23.372;2022-12-24T09:16:06;55.83;;;28.88;;
43710;SDS011;29309;42.682;23.372;2022-12-24T09:18:32;55.95;;;27.63;;
43710;SDS011;29309;42.682;23.372;2022-12-24T09:20:59;58.38;;;27.92;;
43710;SDS011;29309;42.682;23.372;2022-12-24T09:23:25;67.03;;;30.95;;
43710;SDS011;29309;42.682;23.372;2022-12-24T09:25:51;66.90;;;33.03;;
43710;SDS011;29309;42.682;23.372;2022-12-24T09:28:17;65.45;;;33.25;;
43710;SDS011;29309;42.682;23.372;2022-12-24T09:30:42;65.88;;;31.83;;
43710;SDS011;29309;42.682;23.372;2022-12-24T09:33:08;75.03;;;33.47;;
43710;SDS011;29309;42.682;23.372;2022-12-24T09:35:36;62.88;;;33.85;;
43710;SDS011;29309;42.682;23.372;2022-12-24T09:38:02;70.00;;;34.95;;
43710;SDS011;29309;42.682;23.372;2022-12-24T09:40:31;70.82;;;33.97;;
43710;SDS011;29309;42.682;23.372;2022-12-24T09:43:03;71.97;;;34.40;;
43710;SDS011;29309;42.682;23.372;2022-12-24T09:45:37;74.88;;;33.67;;
43710;SDS011;29309;42.682;23.372;2022-12-24T09:48:16;70.55;;;34.95;;
43710;SDS011;29309;42.682;23.372;2022-12-24T09:50:53;76.82;;;39.63;;
43710;SDS011;29309;42.682;23.372;2022-12-24T09:56:21;81.03;;;40.50;;
43710;SDS011;29309;42.682;23.372;2022-12-24T09:58:52;87.90;;;40.97;;
43710;SDS011;29309;42.682;23.372;2022-12-24T10:01:22;82.00;;;39.92;;
43710;SDS011;29309;42.682;23.372;2022-12-24T10:03:47;83.90;;;39.78;;
43710;SDS011;29309;42.682;23.372;2022-12-24T10:06:15;84.25;;;39.25;;
43710;SDS011;29309;42.682;23.372;2022-12-24T10:22:33;77.68;;;36.15;;
43710;SDS011;29309;42.682;23.372;2022-12-24T10:25:19;73.47;;;36.63;;
43710;SDS011;29309;42.682;23.372;2022-12-24T10:27:51;80.32;;;36.67;;
43710;SDS011;29309;42.682;23.372;2022-12-24T10:30:20;76.63;;;37.40;;
43710;SDS011;29309;42.682;23.372;2022-12-24T10:32:48;85.43;;;37.97;;
43710;SDS011;29309;42.682;23.372;2022-12-24T10:37:47;83.07;;;38.28;;
43710;SDS011;29309;42.682;23.372;2022-12-24T10:43:14;76.75;;;36.55;;
43710;SDS011;29309;42.682;23.372;2022-12-24T10:45:52;81.18;;;37.70;;
43710;SDS011;29309;42.682;23.372;2022-12-24T10:48:31;73.18;;;37.65;;
43710;SDS011;29309;42.682;23.372;2022-12-24T10:51:06;80.53;;;37.80;;
43710;SDS011;29309;42.682;23.372;2022-12-24T10:53:48;57.53;;;30.90;;
43710;SDS011;29309;42.682;23.372;2022-12-24T10:56:18;57.88;;;30.10;;
43710;SDS011;29309;42.682;23.372;2022-12-24T10:58:49;63.08;;;30.00;;
43710;SDS011;29309;42.682;23.372;2022-12-24T11:01:18;61.50;;;31.80;;
43710;SDS011;29309;42.682;23.372;2022-12-24T11:03:44;57.05;;;29.33;;
43710;SDS011;29309;42.682;23.372;2022-12-24T11:06:23;65.65;;;31.98;;
43710;SDS011;29309;42.682;23.372;2022-12-24T11:08:48;60.65;;;27.85;;
43710;SDS011;29309;42.682;23.372;2022-12-24T11:11:15;58.95;;;29.27;;
43710;SDS011;29309;42.682;23.372;2022-12-24T11:13:45;55.67;;;27.77;;
43710;SDS011;29309;42.682;23.372;2022-12-24T11:18:53;61.58;;;28.33;;
43710;SDS011;29309;42.682;23.372;2022-12-24T11:21:25;59.42;;;27.70;;
43710;SDS011;29309;42.682;23.372;2022-12-24T11:23:57;47.67;;;26.38;;
43710;SDS011;29309;42.682;23.372;2022-12-24T11:26:25;53.42;;;27.35;;
43710;SDS011;29309;42.682;23.372;2022-12-24T11:29:03;51.42;;;24.23;;
43710;SDS011;29309;42.682;23.372;2022-12-24T11:31:46;54.08;;;23.40;;
43710;SDS011;29309;42.682;23.372;2022-12-24T11:37:13;48.15;;;22.92;;
43710;SDS011;29309;42.682;23.372;2022-12-24T11:39:55;39.47;;;21.73;;
43710;SDS011;29309;42.682;23.372;2022-12-24T11:42:32;40.03;;;21.08;;
43710;SDS011;29309;42.682;23.372;2022-12-24T11:45:02;43.38;;;23.20;;
43710;SDS011;29309;42.682;23.372;2022-12-24T11:47:40;47.42;;;22.70;;
43710;SDS011;29309;42.682;23.372;2022-12-24T11:50:19;45.58;;;22.00;;
43710;SDS011;29309;42.682;23.372;2022-12-24T11:52:49;36.42;;;19.52;;
43710;SDS011;29309;42.682;23.372;2022-12-24T11:55:23;49.67;;;20.85;;
43710;SDS011;29309;42.682;23.372;2022-12-24T11:58:42;43.22;;;20.40;;
43710;SDS011;29309;42.682;23.372;2022-12-24T12:01:20;38.00;;;17.00;;
43710;SDS011;29309;42.682;23.372;2022-12-24T12:06:23;35.13;;;18.15;;
43710;SDS011;29309;42.682;23.372;2022-12-24T12:08:57;39.28;;;18.65;;
43710;SDS011;29309;42.682;23.372;2022-12-24T12:11:26;33.05;;;17.70;;
43710;SDS011;29309;42.682;23.372;2022-12-24T12:13:53;38.92;;;18.50;;
43710;SDS011;29309;42.682;23.372;2022-12-24T12:19:40;29.10;;;15.60;;
43710;SDS011;29309;42.682;23.372;2022-12-24T12:22:17;36.83;;;17.48;;
43710;SDS011;29309;42.682;23.372;2022-12-24T12:24:58;32.80;;;16.25;;
43710;SDS011;29309;42.682;23.372;2022-12-24T12:27:35;34.95;;;17.08;;
43710;SDS011;29309;42.682;23.372;2022-12-24T12:30:05;33.42;;;18.55;;
43710;SDS011;29309;42.682;23.372;2022-12-24T12:35:16;38.25;;;20.83;;
43710;SDS011;29309;42.682;23.372;2022-12-24T12:37:56;63.85;;;30.80;;
43710;SDS011;29309;42.682;23.372;2022-12-24T12:45:46;103.78;;;49.85;;
43710;SDS011;29309;42.682;23.372;2022-12-24T12:51:01;108.35;;;51.67;;
43710;SDS011;29309;42.682;23.372;2022-12-24T12:56:09;101.95;;;48.25;;
43710;SDS011;29309;42.682;23.372;2022-12-24T12:58:49;104.38;;;45.92;;
43710;SDS011;29309;42.682;23.372;2022-12-24T13:12:09;79.03;;;39.85;;
43710;SDS011;29309;42.682;23.372;2022-12-24T13:22:55;64.93;;;33.17;;
43710;SDS011;29309;42.682;23.372;2022-12-24T13:25:42;70.43;;;33.92;;
43710;SDS011;29309;42.682;23.372;2022-12-24T13:30:50;70.55;;;34.67;;
43710;SDS011;29309;42.682;23.372;2022-12-24T13:36:03;70.80;;;34.47;;
43710;SDS011;29309;42.682;23.372;2022-12-24T13:38:49;67.45;;;34.10;;
43710;SDS011;29309;42.682;23.372;2022-12-24T13:49:33;74.78;;;35.67;;
43710;SDS011;29309;42.682;23.372;2022-12-24T13:55:21;68.82;;;32.20;;
43710;SDS011;29309;42.682;23.372;2022-12-24T13:57:27;68.88;;;31.77;;
43710;SDS011;29309;42.682;23.372;2022-12-24T14:02:50;58.95;;;31.08;;
43710;SDS011;29309;42.682;23.372;2022-12-24T14:05:24;62.25;;;31.45;;
43710;SDS011;29309;42.682;23.372;2022-12-24T14:07:56;66.50;;;32.08;;
43710;SDS011;29309;42.682;23.372;2022-12-24T14:10:24;66.45;;;32.67;;
43710;SDS011;29309;42.682;23.372;2022-12-24T14:12:54;58.92;;;30.70;;
43710;SDS011;29309;42.682;23.372;2022-12-24T14:18:20;59.42;;;32.78;;
43710;SDS011;29309;42.682;23.372;2022-12-24T14:20:51;67.93;;;32.80;;
43710;SDS011;29309;42.682;23.372;2022-12-24T14:26:00;63.38;;;32.13;;
43710;SDS011;29309;42.682;23.372;2022-12-24T14:28:34;57.47;;;28.85;;
43710;SDS011;29309;42.682;23.372;2022-12-24T14:31:11;64.28;;;32.42;;
43710;SDS011;29309;42.682;23.372;2022-12-24T14:33:39;65.68;;;33.58;;
43710;SDS011;29309;42.682;23.372;2022-12-24T14:36:05;69.68;;;33.25;;
43710;SDS011;29309;42.682;23.372;2022-12-24T14:38:31;59.95;;;33.05;;
43710;SDS011;29309;42.682;23.372;2022-12-24T14:57:17;70.25;;;35.70;;
43710;SDS011;29309;42.682;23.372;2022-12-24T15:02:42;64.20;;;35.83;;
43710;SDS011;29309;42.682;23.372;2022-12-24T15:05:15;73.72;;;37.05;;
43710;SDS011;29309;42.682;23.372;2022-12-24T15:07:48;69.63;;;35.53;;
43710;SDS011;29309;42.682;23.372;2022-12-24T15:10:36;71.45;;;36.50;;
43710;SDS011;29309;42.682;23.372;2022-12-24T15:13:05;69.18;;;37.25;;
43710;SDS011;29309;42.682;23.372;2022-12-24T15:15:33;70.43;;;34.78;;
43710;SDS011;29309;42.682;23.372;2022-12-24T15:17:59;64.00;;;34.33;;
43710;SDS011;29309;42.682;23.372;2022-12-24T15:20:27;58.10;;;32.70;;
43710;SDS011;29309;42.682;23.372;2022-12-24T15:22:55;60.88;;;30.75;;
43710;SDS011;29309;42.682;23.372;2022-12-24T15:25:23;51.67;;;28.88;;
43710;SDS011;29309;42.682;23.372;2022-12-24T15:27:53;51.90;;;27.52;;
43710;SDS011;29309;42.682;23.372;2022-12-24T15:30:20;48.47;;;26.67;;
43710;SDS011;29309;42.682;23.372;2022-12-24T15:32:49;48.67;;;25.42;;
43710;SDS011;29309;42.682;23.372;2022-12-24T15:38:30;33.97;;;17.60;;
43710;SDS011;29309;42.682;23.372;2022-12-24T15:40:59;25.52;;;15.23;;
43710;SDS011;29309;42.682;23.372;2022-12-24T15:43:27;82.95;;;43.08;;
43710;SDS011;29309;42.682;23.372;2022-12-24T15:45:54;169.57;;;79.72;;
43710;SDS011;29309;42.682;23.372;2022-12-24T15:48:21;216.88;;;108.03;;
43710;SDS011;29309;42.682;23.372;2022-12-24T15:50:52;231.75;;;117.32;;
43710;SDS011;29309;42.682;23.372;2022-12-24T15:53:21;255.77;;;125.60;;
43710;SDS011;29309;42.682;23.372;2022-12-24T15:58:52;206.00;;;98.28;;
43710;SDS011;29309;42.682;23.372;2022-12-24T16:01:37;184.80;;;91.25;;
43710;SDS011;29309;42.682;23.372;2022-12-24T16:04:10;176.02;;;89.40;;
43710;SDS011;29309;42.682;23.372;2022-12-24T16:09:47;160.95;;;74.18;;
43710;SDS011;29309;42.682;23.372;2022-12-24T16:12:21;148.80;;;73.05;;
43710;SDS011;29309;42.682;23.372;2022-12-24T16:14:56;141.02;;;67.53;;
43710;SDS011;29309;42.682;23.372;2022-12-24T16:17:25;128.88;;;63.83;;
43710;SDS011;29309;42.682;23.372;2022-12-24T16:19:53;120.60;;;61.08;;
43710;SDS011;29309;42.682;23.372;2022-12-24T16:22:21;128.68;;;58.65;;
43710;SDS011;29309;42.682;23.372;2022-12-24T16:25:00;121.35;;;61.55;;
43710;SDS011;29309;42.682;23.372;2022-12-24T16:27:46;121.68;;;58.53;;
43710;SDS011;29309;42.682;23.372;2022-12-24T16:30:13;122.53;;;63.00;;
43710;SDS011;29309;42.682;23.372;2022-12-24T16:32:39;142.27;;;67.20;;
43710;SDS011;29309;42.682;23.372;2022-12-24T16:35:06;138.50;;;66.88;;
43710;SDS011;29309;42.682;23.372;2022-12-24T16:37:49;137.25;;;68.95;;